createdAt,value
2018-11-23T00:01:08.672Z,1.10
2018-11-23T00:03:38.247Z,1.00
2018-11-23T00:06:07.080Z,1.10
2018-11-23T00:08:35.915Z,1.10
2018-11-23T00:11:04.750Z,1.00
2018-11-23T00:13:34.322Z,0.90
2018-11-23T00:16:03.892Z,0.90
2018-11-23T00:18:32.724Z,1.00
2018-11-23T00:21:01.576Z,1.00
2018-11-23T00:23:30.420Z,1.10
2018-11-23T00:25:59.255Z,1.00
2018-11-23T00:28:28.113Z,1.00
2018-11-23T00:30:56.948Z,0.90
2018-11-23T00:33:25.781Z,1.00
2018-11-23T00:35:54.657Z,0.90
2018-11-23T00:38:23.464Z,1.00
2018-11-23T00:40:52.292Z,1.00
2018-11-23T00:43:21.133Z,1.00
2018-11-23T00:45:50.706Z,0.90
2018-11-23T00:48:19.536Z,0.90
2018-11-23T00:50:48.385Z,0.90
2018-11-23T00:53:17.225Z,0.80
2018-11-23T00:55:46.070Z,0.80
2018-11-23T00:58:14.900Z,0.90
2018-11-23T01:00:43.753Z,0.80
2018-11-23T01:03:12.586Z,0.80
2018-11-23T01:05:41.410Z,0.80
2018-11-23T01:08:10.243Z,0.80
2018-11-23T01:10:39.813Z,0.80
2018-11-23T01:13:08.644Z,0.80
2018-11-23T01:15:37.482Z,0.80
2018-11-23T01:18:08.177Z,0.70
2018-11-23T01:20:36.994Z,0.70
2018-11-23T01:23:06.568Z,0.70
2018-11-23T01:25:35.400Z,0.90
2018-11-23T01:28:04.242Z,0.80
2018-11-23T01:30:33.064Z,1.00
2018-11-23T01:33:02.636Z,0.90
2018-11-23T01:35:31.460Z,0.90
2018-11-23T01:38:00.335Z,0.80
2018-11-23T01:40:29.184Z,1.00
2018-11-23T01:42:58.007Z,0.90
2018-11-23T01:45:26.885Z,0.80
2018-11-23T01:47:55.683Z,0.80
2018-11-23T01:50:24.521Z,0.70
2018-11-23T01:52:53.354Z,0.70
2018-11-23T01:55:22.184Z,0.70
2018-11-23T01:57:51.014Z,0.80
2018-11-23T02:00:19.838Z,0.80
2018-11-23T02:02:48.667Z,0.70
2018-11-23T02:05:17.494Z,0.60
2018-11-23T02:07:46.323Z,0.60
2018-11-23T02:10:15.168Z,0.60
2018-11-23T02:12:44.003Z,0.60
2018-11-23T02:15:13.584Z,0.60
2018-11-23T02:17:42.416Z,0.60
2018-11-23T02:20:11.244Z,0.60
2018-11-23T02:22:40.075Z,0.60
2018-11-23T02:25:08.895Z,0.60
2018-11-23T02:27:37.724Z,0.60
2018-11-23T02:30:06.550Z,0.60
2018-11-23T02:32:36.135Z,0.50
2018-11-23T02:35:04.997Z,0.60
2018-11-23T02:37:33.828Z,0.70
2018-11-23T02:40:03.419Z,0.60
2018-11-23T02:42:32.236Z,0.60
2018-11-23T02:45:01.083Z,0.50
2018-11-23T02:47:30.656Z,0.40
2018-11-23T02:49:59.480Z,0.30
2018-11-23T02:52:28.299Z,0.30
2018-11-23T02:54:57.138Z,0.30
2018-11-23T02:57:25.977Z,0.30
2018-11-23T02:59:55.583Z,0.20
2018-11-23T03:02:24.411Z,0.10
2018-11-23T03:04:53.243Z,0.10
2018-11-23T03:07:22.079Z,0.20
2018-11-23T03:09:50.968Z,0.10
2018-11-23T03:12:19.741Z,0.20
2018-11-23T03:14:48.568Z,0.20
2018-11-23T03:17:17.403Z,0.20
2018-11-23T03:19:46.250Z,0.20
2018-11-23T03:22:15.080Z,0.30
2018-11-23T03:24:44.650Z,0.30
2018-11-23T03:27:13.479Z,0.40
2018-11-23T03:29:42.323Z,0.30
2018-11-23T03:32:11.152Z,0.20
2018-11-23T03:34:39.999Z,0.20
2018-11-23T03:37:08.812Z,0.10
2018-11-23T03:39:37.650Z,0.10
2018-11-23T03:42:06.540Z,0.10
2018-11-23T03:44:36.082Z,0.00
2018-11-23T03:47:04.909Z,0.00
2018-11-23T03:49:33.748Z,0.00
2018-11-23T03:52:02.576Z,0.10
2018-11-23T03:54:31.412Z,0.20
2018-11-23T03:57:00.251Z,0.10
2018-11-23T03:59:29.817Z,0.10
2018-11-23T04:01:58.654Z,0.20
2018-11-23T04:04:27.495Z,0.20
2018-11-23T04:06:56.334Z,0.10
2018-11-23T04:09:25.220Z,0.20
2018-11-23T04:11:54.002Z,0.20
2018-11-23T04:14:23.584Z,0.20
2018-11-23T04:16:52.434Z,0.10
2018-11-23T04:19:21.266Z,0.30
2018-11-23T04:21:50.112Z,0.20
2018-11-23T04:24:18.940Z,0.30
2018-11-23T04:26:47.767Z,0.30
2018-11-23T04:29:16.604Z,0.30
2018-11-23T04:31:45.435Z,0.20
2018-11-23T04:34:14.276Z,0.30
2018-11-23T04:36:43.109Z,0.30
2018-11-23T04:39:11.933Z,0.30
2018-11-23T04:41:46.276Z,0.30
2018-11-23T04:44:09.621Z,0.40
2018-11-23T04:46:38.444Z,0.50
2018-11-23T04:49:07.279Z,0.40
2018-11-23T04:51:36.139Z,0.50
2018-11-23T04:54:04.970Z,0.50
2018-11-23T04:56:33.793Z,0.50
2018-11-23T04:59:02.623Z,0.50
2018-11-23T05:01:31.452Z,0.60
2018-11-23T05:04:00.283Z,0.60
2018-11-23T05:06:29.107Z,0.60
2018-11-23T05:08:57.931Z,0.50
2018-11-23T05:11:26.763Z,0.40
2018-11-23T05:13:55.603Z,0.50
2018-11-23T05:16:24.437Z,0.50
2018-11-23T05:18:53.275Z,0.60
2018-11-23T05:21:22.100Z,0.50
2018-11-23T05:23:50.942Z,0.50
2018-11-23T05:26:19.777Z,0.60
2018-11-23T05:28:48.613Z,0.50
2018-11-23T05:31:17.447Z,0.50
2018-11-23T05:33:47.028Z,0.40
2018-11-23T05:36:15.872Z,0.50
2018-11-23T05:38:44.699Z,0.50
2018-11-23T05:41:13.534Z,0.40
2018-11-23T05:43:43.097Z,0.40
2018-11-23T05:46:11.924Z,0.40
2018-11-23T05:48:41.505Z,0.30
2018-11-23T05:51:10.367Z,0.40
2018-11-23T05:53:39.197Z,0.30
2018-11-23T05:56:08.778Z,0.30
2018-11-23T05:58:37.605Z,0.20
2018-11-23T06:01:07.193Z,0.20
2018-11-23T06:03:36.021Z,0.30
2018-11-23T06:06:04.856Z,0.30
2018-11-23T06:08:33.675Z,0.30
2018-11-23T06:11:03.256Z,0.20
2018-11-23T06:13:32.079Z,0.20
2018-11-23T06:16:00.925Z,0.20
2018-11-23T06:18:29.756Z,0.30
2018-11-23T06:20:59.337Z,0.30
2018-11-23T06:23:28.202Z,0.30
2018-11-23T06:25:56.995Z,0.30
2018-11-23T06:28:25.823Z,0.30
2018-11-23T06:30:54.649Z,0.20
2018-11-23T06:33:24.331Z,0.20
2018-11-23T06:35:53.169Z,0.20
2018-11-23T06:38:22.001Z,0.20
2018-11-23T06:40:50.832Z,0.10
2018-11-23T06:43:19.668Z,0.10
2018-11-23T06:45:49.241Z,0.10
2018-11-23T06:48:18.071Z,0.20
2018-11-23T06:50:46.931Z,0.20
2018-11-23T06:53:15.762Z,0.20
2018-11-23T06:55:44.592Z,0.10
2018-11-23T06:58:13.420Z,0.10
2018-11-23T07:00:42.259Z,0.10
2018-11-23T07:03:11.204Z,0.20
2018-11-23T07:05:40.775Z,0.20
2018-11-23T07:08:09.897Z,0.10
2018-11-23T07:10:38.746Z,0.10
2018-11-23T07:13:07.583Z,0.20
2018-11-23T07:15:37.196Z,0.10
2018-11-23T07:18:06.757Z,0.10
2018-11-23T07:20:35.592Z,0.10
2018-11-23T07:23:04.441Z,0.10
2018-11-23T07:25:33.268Z,0.10
2018-11-23T07:28:02.100Z,0.10
2018-11-23T07:30:30.948Z,0.00
2018-11-23T07:32:59.797Z,0.10
2018-11-23T07:35:28.647Z,0.10
2018-11-23T07:37:57.501Z,0.20
2018-11-23T07:40:44.164Z,0.10
2018-11-23T07:43:13.003Z,0.10
2018-11-23T07:45:41.846Z,0.10
2018-11-23T07:48:10.685Z,0.10
2018-11-23T07:50:39.523Z,0.10
2018-11-23T07:53:08.373Z,0.10
2018-11-23T07:55:37.951Z,0.10
2018-11-23T07:58:06.797Z,0.30
2018-11-23T08:00:35.632Z,0.30
2018-11-23T08:03:04.466Z,0.30
2018-11-23T08:05:34.041Z,0.20
2018-11-23T08:08:02.894Z,0.30
2018-11-23T08:10:31.141Z,0.30
2018-11-23T08:12:59.993Z,0.70
2018-11-23T08:15:28.835Z,0.90
2018-11-23T08:17:57.682Z,0.90
2018-11-23T08:20:26.530Z,0.90
2018-11-23T08:22:55.358Z,1.10
2018-11-23T08:25:24.228Z,1.30
2018-11-23T08:27:53.070Z,1.40
2018-11-23T08:30:21.921Z,1.20
2018-11-23T08:35:20.196Z,1.30
2018-11-23T08:37:49.036Z,1.10
2018-11-23T08:40:17.867Z,0.90
2018-11-23T08:42:46.697Z,1.00
2018-11-23T08:45:16.283Z,1.00
2018-11-23T08:47:45.133Z,1.10
2018-11-23T08:50:13.978Z,1.10
2018-11-23T08:52:42.826Z,1.20
2018-11-23T08:55:11.657Z,1.30
2018-11-23T08:57:40.509Z,1.40
2018-11-23T09:00:09.348Z,1.40
2018-11-23T09:02:38.928Z,1.40
2018-11-23T09:05:07.769Z,1.60
2018-11-23T09:07:36.601Z,1.60
2018-11-23T09:10:05.428Z,1.60
2018-11-23T09:12:34.295Z,1.70
2018-11-23T09:15:03.135Z,1.70
2018-11-23T09:17:31.980Z,1.80
2018-11-23T09:20:01.558Z,1.90
2018-11-23T09:22:30.395Z,1.80
2018-11-23T09:24:59.234Z,2.00
2018-11-23T09:27:28.075Z,2.00
2018-11-23T09:29:56.925Z,2.10
2018-11-23T09:32:25.764Z,2.00
2018-11-23T09:34:54.605Z,2.20
2018-11-23T09:37:23.444Z,2.30
2018-11-23T09:39:52.274Z,2.30
2018-11-23T09:42:21.851Z,2.40
2018-11-23T09:44:50.690Z,2.40
2018-11-23T09:47:20.273Z,2.50
2018-11-23T09:49:49.124Z,2.70
2018-11-23T09:52:17.962Z,2.70
2018-11-23T09:54:46.795Z,2.90
2018-11-23T09:57:15.637Z,2.80
2018-11-23T09:59:44.472Z,2.90
2018-11-23T10:02:13.298Z,3.00
2018-11-23T10:04:42.128Z,2.90
2018-11-23T10:07:10.968Z,3.00
2018-11-23T10:09:39.809Z,3.10
2018-11-23T10:12:08.014Z,3.10
2018-11-23T10:14:36.855Z,3.00
2018-11-23T10:17:05.695Z,3.00
2018-11-23T10:19:34.530Z,3.20
2018-11-23T10:22:03.379Z,3.30
2018-11-23T10:24:32.224Z,3.40
2018-11-23T10:27:01.053Z,3.60
2018-11-23T10:29:29.889Z,3.60
2018-11-23T10:31:59.473Z,3.60
2018-11-23T10:34:28.303Z,3.60
2018-11-23T10:36:57.150Z,3.50
2018-11-23T10:39:26.018Z,3.70
2018-11-23T10:41:54.820Z,3.90
2018-11-23T10:44:23.652Z,3.80
2018-11-23T10:46:52.477Z,3.80
2018-11-23T10:49:21.328Z,3.80
2018-11-23T10:51:50.894Z,3.80
2018-11-23T10:54:19.738Z,4.00
2018-11-23T10:56:48.613Z,4.10
2018-11-23T10:59:17.431Z,4.20
2018-11-23T11:01:46.269Z,4.40
2018-11-23T11:04:15.108Z,4.40
2018-11-23T11:06:43.942Z,4.30
2018-11-23T11:09:12.763Z,4.20
2018-11-23T11:11:41.607Z,4.20
2018-11-23T11:14:10.439Z,4.40
2018-11-23T11:16:41.924Z,4.50
2018-11-23T11:19:10.780Z,4.70
2018-11-23T11:21:39.616Z,4.70
2018-11-23T11:24:08.470Z,4.80
2018-11-23T11:26:37.305Z,4.80
2018-11-23T11:29:06.144Z,4.90
2018-11-23T11:31:34.994Z,4.90
2018-11-23T11:34:03.849Z,4.80
2018-11-23T11:36:32.697Z,4.80
2018-11-23T11:39:01.554Z,4.90
2018-11-23T11:41:30.403Z,4.90
2018-11-23T11:43:59.254Z,4.90
2018-11-23T11:46:28.111Z,5.00
2018-11-23T11:48:56.937Z,5.10
2018-11-23T11:51:26.523Z,5.20
2018-11-23T11:53:55.374Z,5.20
2018-11-23T11:56:24.213Z,5.30
2018-11-23T11:58:53.784Z,5.40
2018-11-23T12:01:22.613Z,5.60
2018-11-23T12:03:51.469Z,5.60
2018-11-23T12:06:20.299Z,5.70
2018-11-23T12:08:49.886Z,5.50
2018-11-23T12:11:18.777Z,5.50
2018-11-23T12:13:47.593Z,5.60
2018-11-23T12:16:16.446Z,5.70
2018-11-23T12:18:45.282Z,5.70
2018-11-23T12:21:14.119Z,5.80
2018-11-23T12:23:42.961Z,5.90
2018-11-23T12:26:11.798Z,5.90
2018-11-23T12:28:40.656Z,5.70
2018-11-23T12:31:09.498Z,5.60
2018-11-23T12:33:38.350Z,5.80
2018-11-23T12:36:07.198Z,5.70
2018-11-23T12:38:36.036Z,5.70
2018-11-23T12:41:04.873Z,5.80
2018-11-23T12:43:33.757Z,5.90
2018-11-23T12:46:02.599Z,5.80
2018-11-23T12:48:31.446Z,5.80
2018-11-23T12:51:00.290Z,5.70
2018-11-23T12:53:29.124Z,5.70
2018-11-23T12:55:57.972Z,5.90
2018-11-23T12:58:27.555Z,5.90
2018-11-23T13:00:56.388Z,6.00
2018-11-23T13:03:25.226Z,6.00
2018-11-23T13:05:54.071Z,6.10
2018-11-23T13:08:23.685Z,6.00
2018-11-23T13:10:52.536Z,6.00
2018-11-23T13:13:21.395Z,6.00
2018-11-23T13:15:50.232Z,6.00
2018-11-23T13:18:19.067Z,6.00
2018-11-23T13:20:47.906Z,6.00
2018-11-23T13:23:16.749Z,6.00
2018-11-23T13:25:45.593Z,6.00
2018-11-23T13:28:14.437Z,6.00
2018-11-23T13:30:43.285Z,5.90
2018-11-23T13:33:12.857Z,5.90
2018-11-23T13:35:41.694Z,5.90
2018-11-23T13:38:09.761Z,5.90
2018-11-23T13:40:38.605Z,5.90
2018-11-23T13:43:07.449Z,5.80
2018-11-23T13:45:36.283Z,5.80
2018-11-23T13:48:05.133Z,5.70
2018-11-23T13:50:33.979Z,5.70
2018-11-23T13:53:02.819Z,5.70
2018-11-23T13:55:31.657Z,5.70
2018-11-23T13:58:01.302Z,5.60
2018-11-23T14:00:29.350Z,5.70
2018-11-23T14:02:58.930Z,5.60
2018-11-23T14:05:27.761Z,5.60
2018-11-23T14:07:56.617Z,5.60
2018-11-23T14:10:25.470Z,5.60
2018-11-23T14:12:54.296Z,5.60
2018-11-23T14:15:23.127Z,5.60
2018-11-23T14:17:51.959Z,5.50
2018-11-23T14:20:20.788Z,5.50
2018-11-23T14:22:50.366Z,5.40
2018-11-23T14:27:49.362Z,5.40
2018-11-23T14:30:18.196Z,5.50
2018-11-23T14:32:47.764Z,5.40
2018-11-23T14:35:16.596Z,5.30
2018-11-23T14:37:45.433Z,5.30
2018-11-23T14:40:14.325Z,5.20
2018-11-23T14:42:43.174Z,5.20
2018-11-23T14:45:12.014Z,5.20
2018-11-23T14:47:40.862Z,5.20
2018-11-23T14:50:09.698Z,5.10
2018-11-23T14:52:38.542Z,5.10
2018-11-23T14:55:07.378Z,5.10
2018-11-23T14:57:36.231Z,5.00
2018-11-23T15:00:05.064Z,5.10
2018-11-23T15:02:33.893Z,5.00
2018-11-23T15:05:02.729Z,5.00
2018-11-23T15:07:31.569Z,5.00
2018-11-23T15:10:00.417Z,4.90
2018-11-23T15:12:29.282Z,4.90
2018-11-23T15:14:58.119Z,4.90
2018-11-23T15:17:26.951Z,4.90
2018-11-23T15:19:55.776Z,4.80
2018-11-23T15:22:25.367Z,4.80
2018-11-23T15:24:54.205Z,4.80
2018-11-23T15:27:23.037Z,4.70
2018-11-23T15:29:51.872Z,4.70
2018-11-23T15:32:20.712Z,4.70
2018-11-23T15:34:49.546Z,4.70
2018-11-23T15:37:18.377Z,4.60
2018-11-23T15:39:47.220Z,4.50
2018-11-23T15:42:16.788Z,4.50
2018-11-23T15:44:45.618Z,4.50
2018-11-23T15:47:14.478Z,4.50
2018-11-23T15:49:44.046Z,4.50
2018-11-23T15:52:12.879Z,4.60
2018-11-23T15:54:42.464Z,4.50
2018-11-23T15:57:11.286Z,4.50
2018-11-23T15:59:40.873Z,4.50
2018-11-23T16:02:10.451Z,4.50
2018-11-23T16:04:39.707Z,4.50
2018-11-23T16:07:08.873Z,4.50
2018-11-23T16:12:41.667Z,4.50
2018-11-23T16:15:24.284Z,4.40
2018-11-23T16:17:53.130Z,4.40
2018-11-23T16:20:21.966Z,4.40
2018-11-23T16:22:51.542Z,4.40
2018-11-23T16:25:20.379Z,4.40
2018-11-23T16:27:49.963Z,4.30
2018-11-23T16:30:19.553Z,4.30
2018-11-23T16:32:48.372Z,4.30
2018-11-23T16:35:17.260Z,4.30
2018-11-23T16:37:46.064Z,4.40
2018-11-23T16:40:14.894Z,4.30
2018-11-23T16:42:43.745Z,4.20
2018-11-23T16:45:12.591Z,4.20
2018-11-23T16:47:41.451Z,4.20
2018-11-23T16:50:10.303Z,4.10
2018-11-23T16:52:39.881Z,4.10
2018-11-23T16:55:08.779Z,4.10
2018-11-23T16:57:37.573Z,4.20
2018-11-23T17:00:07.158Z,4.10
2018-11-23T17:02:35.988Z,4.10
2018-11-23T17:05:04.824Z,4.10
2018-11-23T17:07:33.650Z,4.10
2018-11-23T17:10:03.226Z,4.00
2018-11-23T17:12:32.084Z,4.10
2018-11-23T17:15:00.928Z,4.10
2018-11-23T17:17:30.602Z,4.10
2018-11-23T17:19:59.432Z,4.20
2018-11-23T17:22:28.269Z,4.20
2018-11-23T17:24:57.096Z,4.30
2018-11-23T17:27:25.933Z,4.20
2018-11-23T17:29:54.749Z,4.20
2018-11-23T17:32:23.589Z,4.20
2018-11-23T17:34:53.164Z,4.20
2018-11-23T17:37:21.995Z,4.10
2018-11-23T17:39:50.846Z,4.10
2018-11-23T17:42:19.682Z,4.20
2018-11-23T17:44:48.528Z,4.20
2018-11-23T17:47:17.353Z,4.10
2018-11-23T17:49:46.194Z,4.10
2018-11-23T17:52:15.016Z,4.10
2018-11-23T17:54:44.589Z,4.10
2018-11-23T17:57:13.426Z,4.10
2018-11-23T17:59:42.262Z,4.10
2018-11-23T18:02:11.096Z,4.10
2018-11-23T18:04:39.939Z,4.10
2018-11-23T18:07:08.765Z,4.10
2018-11-23T18:09:37.627Z,4.10
2018-11-23T18:12:06.458Z,4.00
2018-11-23T18:14:35.273Z,4.00
2018-11-23T18:17:04.114Z,4.00
2018-11-23T18:19:32.942Z,4.00
2018-11-23T18:22:01.809Z,4.00
2018-11-23T18:24:30.603Z,3.90
2018-11-23T18:26:59.458Z,3.90
2018-11-23T18:29:28.279Z,3.80
2018-11-23T18:31:57.122Z,3.70
2018-11-23T18:34:25.957Z,3.60
2018-11-23T18:36:54.799Z,3.50
2018-11-23T18:39:24.388Z,3.40
2018-11-23T18:41:53.220Z,3.30
2018-11-23T18:44:22.052Z,3.30
2018-11-23T18:46:50.893Z,3.30
2018-11-23T18:49:19.729Z,3.30
2018-11-23T18:51:48.559Z,3.20
2018-11-23T18:56:46.855Z,3.20
2018-11-23T18:59:15.699Z,3.20
2018-11-23T19:01:44.542Z,3.40
2018-11-23T19:04:13.387Z,3.40
2018-11-23T19:06:42.213Z,3.40
2018-11-23T19:09:11.048Z,3.40
2018-11-23T19:11:39.886Z,3.50
2018-11-23T19:14:09.471Z,3.40
2018-11-23T19:16:38.346Z,3.30
2018-11-23T19:19:12.793Z,3.20
2018-11-23T19:21:41.628Z,3.30
2018-11-23T19:24:10.621Z,3.20
2018-11-23T19:26:39.423Z,3.30
2018-11-23T19:29:08.279Z,3.30
2018-11-23T19:31:37.104Z,3.20
2018-11-23T19:34:05.997Z,3.00
2018-11-23T19:36:35.571Z,3.00
2018-11-23T19:39:04.440Z,2.90
2018-11-23T19:41:33.268Z,2.90
2018-11-23T19:44:02.847Z,2.80
2018-11-23T19:46:31.738Z,2.80
2018-11-23T19:49:00.625Z,2.70
2018-11-23T19:51:29.423Z,2.80
2018-11-23T19:53:58.267Z,2.80
2018-11-23T19:56:27.118Z,2.80
2018-11-23T19:58:56.004Z,2.80
2018-11-23T20:01:24.832Z,2.70
2018-11-23T20:03:53.681Z,2.90
2018-11-23T20:06:22.531Z,2.80
2018-11-23T20:08:51.423Z,2.90
2018-11-23T20:11:20.219Z,2.90
2018-11-23T20:13:49.147Z,2.90
2018-11-23T20:16:19.091Z,2.90
2018-11-23T20:18:47.922Z,2.80
2018-11-23T20:21:16.750Z,2.80
2018-11-23T20:23:46.008Z,2.80
2018-11-23T20:26:15.706Z,2.80
2018-11-23T20:28:44.540Z,2.80
2018-11-23T20:31:14.117Z,2.90
2018-11-23T20:33:42.969Z,2.90
2018-11-23T20:36:11.824Z,3.00
2018-11-23T20:38:40.683Z,3.00
2018-11-23T20:41:09.517Z,2.90
2018-11-23T20:43:38.359Z,2.80
2018-11-23T20:46:07.197Z,2.90
2018-11-23T20:48:36.053Z,2.90
2018-11-23T20:51:04.890Z,2.90
2018-11-23T20:53:33.752Z,3.00
2018-11-23T20:56:03.327Z,2.90
2018-11-23T20:58:32.424Z,2.60
2018-11-23T21:01:01.272Z,2.70
2018-11-23T21:03:30.123Z,2.70
2018-11-23T21:05:59.001Z,2.70
2018-11-23T21:08:27.849Z,2.80
2018-11-23T21:10:56.710Z,2.70
2018-11-23T21:13:25.557Z,2.60
2018-11-23T21:18:23.848Z,2.70
2018-11-23T21:20:52.693Z,2.60
2018-11-23T21:23:21.557Z,2.70
2018-11-23T21:25:50.413Z,2.60
2018-11-23T21:28:19.242Z,2.60
2018-11-23T21:30:48.082Z,2.70
2018-11-23T21:33:16.938Z,2.60
2018-11-23T21:35:45.770Z,2.70
2018-11-23T21:38:14.627Z,2.70
2018-11-23T21:40:44.398Z,2.70
2018-11-23T21:43:12.303Z,2.80
2018-11-23T21:45:41.157Z,2.80
2018-11-23T21:48:09.996Z,2.80
2018-11-23T21:50:38.841Z,2.70
2018-11-23T21:53:08.439Z,2.60
2018-11-23T21:55:37.282Z,2.60
2018-11-23T21:58:06.130Z,2.60
2018-11-23T22:00:35.721Z,2.50
2018-11-23T22:03:04.561Z,2.50
2018-11-23T22:05:33.400Z,2.70
2018-11-23T22:08:02.252Z,2.60
2018-11-23T22:10:31.090Z,2.60
2018-11-23T22:13:00.664Z,2.50
2018-11-23T22:15:29.498Z,2.50
2018-11-23T22:17:58.370Z,2.30
2018-11-23T22:20:27.238Z,2.30
2018-11-23T22:22:56.061Z,2.40
2018-11-23T22:25:24.922Z,2.50
2018-11-23T22:27:53.746Z,2.50
2018-11-23T22:30:22.597Z,2.50
2018-11-23T22:32:51.412Z,2.50
2018-11-23T22:35:20.255Z,2.50
2018-11-23T22:37:49.089Z,2.50
2018-11-23T22:40:18.148Z,2.40
2018-11-23T22:42:46.787Z,2.40
2018-11-23T22:45:15.606Z,2.40
2018-11-23T22:47:44.430Z,2.50
2018-11-23T22:50:14.009Z,2.40
2018-11-23T22:52:42.853Z,2.40
2018-11-23T22:55:11.684Z,2.40
2018-11-23T22:57:40.541Z,2.30
2018-11-23T23:00:09.381Z,2.40
2018-11-23T23:02:38.216Z,2.50
2018-11-23T23:05:07.073Z,2.40
2018-11-23T23:07:35.923Z,2.40
2018-11-23T23:10:04.781Z,2.50
2018-11-23T23:12:33.619Z,2.50
2018-11-23T23:15:02.444Z,2.40
2018-11-23T23:17:31.281Z,2.40
2018-11-23T23:20:00.115Z,2.40
2018-11-23T23:22:28.940Z,2.50
2018-11-23T23:24:57.783Z,2.40
2018-11-23T23:27:26.632Z,2.50
2018-11-23T23:29:55.463Z,2.50
2018-11-23T23:32:25.040Z,2.50
2018-11-23T23:34:53.882Z,2.60
2018-11-23T23:37:22.718Z,2.60
2018-11-23T23:39:51.561Z,2.60
2018-11-23T23:42:20.390Z,2.70
2018-11-23T23:44:49.220Z,2.70
2018-11-23T23:47:18.067Z,2.60
2018-11-23T23:49:46.904Z,2.60
2018-11-23T23:52:15.782Z,2.50
2018-11-23T23:54:44.615Z,2.50
2018-11-23T23:57:13.448Z,2.50
2018-11-23T23:59:42.280Z,2.60
